AirNav   Everest Fuels
 
 1186 users online  

MI14 Overflow Pad (Lower Pad) Heliport
Ann Arbor, Michigan, USA

GOING TO ANN ARBOR?


FAA INFORMATION EFFECTIVE 30 JANUARY 2020

Location

FAA Identifier: MI14
Lat/Long: 42-16-59.5500N 083-43-44.5300W
42-16.992500N 083-43.742167W
42.2832083,-83.7290361
(estimated)
Elevation: 780 ft. / 238 m (estimated)
Variation: 05W (1990)
Time zone: UTC -5 (UTC -4 during Daylight Saving Time)
Zip code: 48105

Heliport Operations

Heliport use: Private use, MEDICAL USE.
Activation date: 03/1993
Control tower: no
ARTCC: CLEVELAND CENTER
FSS: LANSING FLIGHT SERVICE STATION
Attendance: CONTINUOUS
Wind indicator: yes
Segmented circle: no
Lights: ACTVT PERIMETER LGTS - 130.6.
Beacon: white-green-yellow (heliport)
24 HRS.

Heliport Communications

WX ASOS at ARB (4 nm S): 134.55 (734-668-7173)
WX ASOS at YIP (9 nm E): 132.35 (734-961-6843)
WX ASOS at DTW (17 nm E): 133.675 (734-955-5015)

Nearby radio navigation aids

VOR radial/distance  VOR name  Freq  Var
SVMr222/9.6SALEM VORTAC114.3003W
DXOr291/16.6DETROIT VOR/DME113.4006W
CRLr322/18.6CARLETON VOR/DME115.7003W
JXNr092/32.4JACKSON VOR/DME109.6005W

 
NDB name  Hdg/Dist  Freq  Var  ID
TECUMSEH031/16.523906WTCU - -.-. ..-
GROSSE ILE300/27.841907WRYS .-. -.-- ...
ADRIAN038/29.227806WADG .- -.. --.

Heliport Services

Runway Information

Helipad H1

Dimensions: 60 x 60 ft. / 18 x 18 m
Surface: concrete
Runway edge lights: PERI
Latitude: 42-16.992500N
Longitude: 083-43.742167W
Elevation: 780.0 ft.
Traffic pattern: leftleft

Heliport Ownership and Management from official FAA records

Ownership: Privately-owned
Owner: UNIV OF MICHIGAN MEDICAL CTR
1500 E MEDICAL CENTER DR
ANN ARBOR, MI 48109-0307
Phone 734-936-6045
Manager: DENISE LANDIS
1500 E MEDICAL CENTER DR, BI 208 TC, BI 352 TC 5307
ANN ARBOR, MI 48109-0307
Phone 734-936-6045

Additional Remarks

CTAF 130.6
FOR CD CTC DETROIT APCH AT 800-499-8181.

Instrument Procedures

There are no published instrument procedures at MI14.

Some nearby airports with instrument procedures:

KARB - Ann Arbor Municipal Airport (4 nm S)
KYIP - Willow Run Airport (9 nm E)
1D2 - Canton-Plymouth-Mettetal Airport (13 nm E)
Y47 - Oakland Southwest Airport (14 nm N)
KDTW - Detroit Metropolitan Wayne County Airport (17 nm E)
 
Loc | Ops | Rwys | IFR | FBO | Links
Com | Nav | Svcs | Stats | Notes
Area around MI14 (Overflow Pad (Lower Pad) Heliport)
 
Road maps at: MapQuest Bing Google
 
Aerial photo
No photo
 
Sectional chart

 
Airport distance calculator
Flying to Overflow Pad (Lower Pad) Heliport? Find the distance to fly.

From to MI14

Sunrise and sunset
Times for 19-Feb-2020
 Local
(UTC-5)
 Zulu
(UTC)
Morning civil twilight06:5811:58
Sunrise07:2712:27
Sunset18:1123:11
Evening civil twilight18:4023:40

Current date and time
Zulu (UTC)  19-Feb-2020 14:22:23
Local (UTC-5)  19-Feb-2020 09:22:23
 
METAR
KARB 
4nm S 
734-668-7173
191353Z 35011G17KT 10SM CLR M06/M14 A3049 RMK AO2 SLP337 T10611139
KYIP 
9nm E 
191353Z 33013G19KT 10SM CLR M05/M13 A3050 RMK AO2 SLP335 T10501133
KDTW 
18nm E 
191353Z 31012KT 10SM FEW030 FEW220 M06/M13 A3049 RMK AO2 SLP336 T10561133
TAF
KYIP 
9nm E 
190535Z 1906/2006 28009KT P6SM SKC FM190700 29010KT P6SM SCT028 BKN035 FM191200 28010KT P6SM SKC FM200000 27008KT P6SM SCT100 BKN250
KDTW 
18nm E 
191135Z 1912/2018 30013KT P6SM SCT040 FM200100 33007KT P6SM OVC100 FM201300 35005KT P6SM SCT040
NOTAMs
Click for the latest NOTAMs
NOTAMs are issued by the DoD/FAA and will open in a separate window not controlled by AirNav.

 

 
 

Would you like to see your business listed on this page?

 If your business provides an interesting product or service to pilots, flight crews, aircraft, or users of the Overflow Pad (Lower Pad) Heliport, you should consider listing it here.  To start the listing process, click on the button below
 
Add a business
 

Other Pages about Overflow Pad (Lower Pad) Heliport

Update a link
 
Copyright © AirNav, LLC. All rights reserved. Privacy Policy  Contact